Airfield :
LOGIN :

Register | Disclaimer

   EN    FR    IT 

 










Legend :    VFR   Marginal VFR   IFR   Intensive IFR   Very Intensive IFR
Visi :
Ceiling :
>= 8 km
>= 3000ft
5 to 8 km
1000 to 3000 ft
1500m to 5 km
500 to 1000 ft
800 to 1500m
200 to 500 ft
< 800m
< 200 ft
Symbols :   Thunderstorms  Fog  Heavy snow  Heavy precipitations  Wind > 20 kt
SIGMETs :     Misc.  Thunderstorms  Icing  Turbulence  Mountain Waves  Volcanic Ashes






- Airport Elevation : 778 ft
- IATA code : BRQ


LKTB - Brno-Turany

CURRENT METAR :
  • 290530Z 30006KT CAVOK 04/M01 Q1013 NOSIG

EXPIRED METARs :
  • 290500Z 29006KT CAVOK 04/M01 Q1013 NOSIG
  • 290430Z 31007KT CAVOK 05/M01 Q1013 NOSIG
  • 290400Z 31006KT CAVOK 05/M01 Q1013 NOSIG
  • 290330Z 31005KT 290V350 CAVOK 05/M01 Q1013 NOSIG
  • 290300Z 31006KT CAVOK 05/M01 Q1012 NOSIG

TAF TAF LKTB
Valid from the 29 at 06:00 until the 30 at 12:00 UTC


290500Z 2906/3012 33010KT CAVOK
BECMG 2908/2910 9999 SCT030
TEMPO 2910/3012 35012G24KT
TEMPO 2918/3012 RA BKN020
PROB30
TEMPO 3000/3012 4000 RASN BKN012



MET'MAP, your aeronautical weather chart ! - Copyright ORBIFLY December 2007 - Disclaimer

ORBIFLY MET'MAP TEAM :

Programming & Development : Alexandra Zaïnal
Concept & original design : Baudouin d'Aumeries
Assistance for programming : Marc-Olivier Méhu
Technical & hardware support : Manuel Goepfert

Contact : metmap@orbifly.com




SOURCES & CREDITS :

   NOAA